Time;durP1;ratioP1;P1;durP2;ratioP2;P2;SDS_P1;SDS_P2;PMS_P1;PMS_P2;Temp;Humidity;BMP_temperature;BMP_pressure;BME280_temperature;BME280_humidity;BME280_pressure;Samples;Min_cycle;Max_cycle;Signal;HPM_P1;HPM_P2
2021/07/26 00:00:47;;;;;;;8.63;7.53;;;17.90;99.90;;;;;;5087521;28;20036;-66
2021/07/26 00:03:13;;;;;;;8.23;7.43;;;18.00;99.90;;;;;;5085541;28;20442;-65
2021/07/26 00:05:38;;;;;;;10.25;6.93;;;18.00;99.90;;;;;;5094107;28;20111;-65
2021/07/26 00:08:04;;;;;;;7.78;7.13;;;18.00;99.90;;;;;;5093979;28;20039;-65
2021/07/26 00:10:30;;;;;;;10.63;8.15;;;18.00;99.90;;;;;;5094023;28;20044;-65
2021/07/26 00:12:55;;;;;;;9.90;9.00;;;17.90;99.90;;;;;;5094103;28;20080;-65
2021/07/26 00:15:21;;;;;;;10.35;8.48;;;18.00;99.90;;;;;;5091759;28;20115;-65
2021/07/26 00:17:47;;;;;;;11.68;10.02;;;18.00;99.90;;;;;;5093783;28;20028;-65
2021/07/26 00:20:13;;;;;;;12.00;10.35;;;18.00;99.90;;;;;;5093791;28;20039;-65
2021/07/26 00:22:39;;;;;;;12.77;10.75;;;18.00;99.90;;;;;;5093839;28;20040;-65
2021/07/26 00:25:08;;;;;;;11.43;10.38;;;18.00;99.90;;;;;;5093332;28;20039;-65
2021/07/26 00:27:35;;;;;;;11.95;10.75;;;18.00;99.90;;;;;;5093218;28;20105;-65
2021/07/26 00:30:01;;;;;;;14.50;11.23;;;18.00;99.90;;;;;;5074610;28;20044;-65
2021/07/26 00:32:29;;;;;;;14.98;10.38;;;18.00;99.90;;;;;;5093985;28;20440;-65
2021/07/26 00:34:57;;;;;;;11.18;10.00;;;18.00;99.90;;;;;;5075501;28;20035;-65
2021/07/26 00:37:26;;;;;;;20.15;10.60;;;18.00;99.90;;;;;;5095995;28;20494;-65
2021/07/26 00:39:53;;;;;;;19.88;10.57;;;18.00;99.90;;;;;;5093665;28;20142;-65
2021/07/26 00:42:19;;;;;;;13.55;9.63;;;18.00;99.90;;;;;;5093277;28;20040;-65
2021/07/26 00:44:45;;;;;;;15.52;9.45;;;18.00;99.90;;;;;;5092828;28;20040;-65
2021/07/26 00:47:10;;;;;;;13.27;10.23;;;17.90;99.90;;;;;;5093016;28;20833;-65
2021/07/26 00:49:36;;;;;;;17.15;12.95;;;17.90;99.90;;;;;;5090839;28;20043;-65
2021/07/26 00:52:03;;;;;;;15.10;11.65;;;17.70;99.90;;;;;;5092218;28;20073;-65
2021/07/26 00:54:35;;;;;;;14.88;11.82;;;17.60;99.90;;;;;;5092638;28;20085;-64
2021/07/26 00:57:03;;;;;;;12.13;10.85;;;17.70;99.90;;;;;;5093036;28;20516;-65
2021/07/26 00:59:30;;;;;;;11.65;10.45;;;17.70;99.90;;;;;;5091885;28;20153;-65
2021/07/26 01:01:57;;;;;;;13.88;11.50;;;17.70;99.90;;;;;;5074783;28;20114;-65
2021/07/26 01:04:23;;;;;;;12.27;11.00;;;17.60;99.90;;;;;;5060944;28;20143;-65
2021/07/26 01:06:49;;;;;;;14.13;11.38;;;17.60;99.90;;;;;;5091628;28;20047;-65
2021/07/26 01:09:15;;;;;;;12.07;10.52;;;17.60;99.90;;;;;;5093344;28;20036;-65
2021/07/26 01:11:42;;;;;;;12.05;10.45;;;17.50;99.90;;;;;;5092858;28;20055;-65
2021/07/26 01:14:08;;;;;;;12.20;10.82;;;17.50;99.90;;;;;;5093271;28;20397;-65
2021/07/26 01:16:33;;;;;;;13.15;10.98;;;17.50;99.90;;;;;;5090172;28;20036;-65
2021/07/26 01:19:01;;;;;;;12.48;11.07;;;17.50;99.90;;;;;;5092878;28;20481;-65
2021/07/26 01:21:27;;;;;;;11.82;10.23;;;17.50;99.90;;;;;;5062894;28;20036;-65
2021/07/26 01:23:53;;;;;;;13.60;10.95;;;17.40;99.90;;;;;;5090714;28;20059;-65
2021/07/26 01:26:21;;;;;;;11.95;10.60;;;17.50;99.90;;;;;;5088472;28;20447;-65
2021/07/26 01:28:57;;;;;;;12.90;11.50;;;17.40;99.90;;;;;;5078300;28;20355;-65
2021/07/26 01:31:23;;;;;;;15.70;12.00;;;17.40;99.90;;;;;;5092066;28;20504;-65
2021/07/26 01:33:50;;;;;;;16.65;12.80;;;17.30;99.90;;;;;;5092634;28;20054;-65
2021/07/26 01:36:16;;;;;;;12.60;11.02;;;17.20;99.90;;;;;;5091709;28;20093;-65
2021/07/26 01:38:45;;;;;;;14.70;11.70;;;17.20;99.90;;;;;;5091334;28;20052;-65
2021/07/26 01:41:21;;;;;;;14.23;12.65;;;17.20;99.90;;;;;;5092049;28;20394;-65
2021/07/26 01:44:06;;;;;;;12.60;11.32;;;17.10;99.90;;;;;;5092707;28;20119;-65
2021/07/26 01:46:50;;;;;;;13.15;11.93;;;17.20;99.90;;;;;;5091858;28;20063;-65
2021/07/26 01:49:31;;;;;;;13.65;11.30;;;17.20;99.90;;;;;;5067490;28;20394;-65
2021/07/26 01:51:56;;;;;;;12.70;11.20;;;17.10;99.90;;;;;;5086809;28;20047;-65
2021/07/26 01:54:22;;;;;;;12.32;10.70;;;17.10;99.90;;;;;;5090695;28;20043;-65
2021/07/26 01:56:48;;;;;;;14.90;12.75;;;17.10;99.90;;;;;;5091609;28;20044;-65
2021/07/26 01:59:14;;;;;;;12.98;11.77;;;17.10;99.90;;;;;;5092115;28;20092;-65
2021/07/26 02:01:40;;;;;;;13.40;11.60;;;17.10;99.90;;;;;;5086656;28;20111;-65
2021/07/26 02:04:05;;;;;;;12.55;11.35;;;17.10;99.90;;;;;;5092202;28;20044;-65
2021/07/26 02:06:31;;;;;;;13.63;11.05;;;17.10;99.90;;;;;;5091538;28;20055;-65
2021/07/26 02:08:57;;;;;;;12.35;11.05;;;17.00;99.90;;;;;;5091868;28;20065;-65
2021/07/26 02:11:23;;;;;;;12.23;11.13;;;17.00;99.90;;;;;;5091622;28;20160;-65
2021/07/26 02:13:49;;;;;;;12.13;10.93;;;17.00;99.90;;;;;;5078803;28;20390;-65
2021/07/26 02:16:15;;;;;;;13.82;12.43;;;16.90;99.90;;;;;;5073276;28;20043;-65
2021/07/26 02:18:40;;;;;;;12.55;11.18;;;16.90;99.90;;;;;;5091409;28;20051;-65
2021/07/26 02:21:06;;;;;;;12.75;11.45;;;16.90;99.90;;;;;;5090837;28;20026;-65
2021/07/26 02:23:32;;;;;;;15.32;11.60;;;16.90;99.90;;;;;;5091794;28;20055;-65
2021/07/26 02:25:58;;;;;;;13.48;12.27;;;16.90;99.90;;;;;;5091486;28;20047;-65
2021/07/26 02:28:24;;;;;;;13.25;12.05;;;16.90;99.90;;;;;;5087479;28;20032;-65
2021/07/26 02:30:50;;;;;;;13.35;12.02;;;16.80;99.90;;;;;;5091516;28;20039;-65
2021/07/26 02:33:16;;;;;;;13.05;11.82;;;16.80;99.90;;;;;;5091183;28;20386;-65
2021/07/26 02:35:41;;;;;;;13.57;12.15;;;16.80;99.90;;;;;;5091238;28;20040;-64
2021/07/26 02:38:07;;;;;;;13.32;11.90;;;16.80;99.90;;;;;;5087015;28;20085;-64
2021/07/26 02:40:33;;;;;;;13.75;11.95;;;16.80;99.90;;;;;;5089913;28;20406;-64
2021/07/26 02:42:58;;;;;;;13.02;11.75;;;16.80;99.90;;;;;;5086707;28;20625;-65
2021/07/26 02:45:25;;;;;;;14.05;12.52;;;16.80;99.90;;;;;;5083158;28;20035;-65
2021/07/26 02:47:51;;;;;;;13.85;11.98;;;16.70;99.90;;;;;;5089205;28;20447;-65
2021/07/26 02:50:17;;;;;;;16.00;11.50;;;16.70;99.90;;;;;;5084487;28;20108;-65
2021/07/26 02:52:43;;;;;;;16.10;11.15;;;16.70;99.90;;;;;;5090616;28;20036;-64
2021/07/26 02:55:09;;;;;;;15.90;12.45;;;16.70;99.90;;;;;;5091316;28;20032;-65
2021/07/26 02:57:35;;;;;;;16.30;11.48;;;16.60;99.90;;;;;;5091166;28;20492;-65
2021/07/26 03:00:01;;;;;;;13.65;10.80;;;16.60;99.90;;;;;;5080261;28;20048;-65
2021/07/26 03:02:26;;;;;;;13.40;12.00;;;16.60;99.90;;;;;;5085246;28;20459;-65
2021/07/26 03:04:52;;;;;;;16.63;14.40;;;16.60;99.90;;;;;;5084140;28;20040;-65
2021/07/26 03:07:19;;;;;;;17.80;14.75;;;16.60;99.90;;;;;;5090989;28;20447;-65
2021/07/26 03:09:45;;;;;;;16.55;13.45;;;16.50;99.90;;;;;;5091248;28;20119;-65
2021/07/26 03:12:11;;;;;;;18.70;13.02;;;16.50;99.90;;;;;;5080636;28;20395;-65
2021/07/26 03:14:36;;;;;;;17.35;12.90;;;16.50;99.90;;;;;;5090676;28;20047;-64
2021/07/26 03:17:03;;;;;;;14.30;12.77;;;16.50;99.90;;;;;;5089612;28;20059;-64
2021/07/26 03:19:30;;;;;;;14.10;12.40;;;16.60;99.90;;;;;;5097204;28;20040;-64
2021/07/26 03:22:34;;;;;;;13.55;12.15;;;16.60;99.90;;;;;;5085292;28;20477;-64
2021/07/26 03:25:00;;;;;;;16.02;13.15;;;16.60;99.90;;;;;;5076668;28;20221;-64
2021/07/26 03:27:26;;;;;;;15.35;12.02;;;16.60;99.90;;;;;;5090246;28;20399;-65
2021/07/26 03:29:51;;;;;;;14.85;13.35;;;16.50;99.90;;;;;;5089734;28;20040;-64
2021/07/26 03:32:17;;;;;;;18.35;16.02;;;16.50;99.90;;;;;;5090310;28;20120;-65
2021/07/26 03:34:43;;;;;;;15.90;14.40;;;16.40;99.90;;;;;;5087286;28;20033;-64
2021/07/26 03:37:09;;;;;;;57.88;17.55;;;16.40;99.90;;;;;;5086181;28;20428;-64
2021/07/26 03:39:34;;;;;;;21.70;18.15;;;16.30;99.90;;;;;;5090476;28;20043;-65
2021/07/26 03:42:00;;;;;;;20.95;18.75;;;16.30;99.90;;;;;;5089678;28;20040;-65
2021/07/26 03:44:27;;;;;;;19.15;17.17;;;16.30;99.90;;;;;;5090383;28;20048;-65
2021/07/26 03:46:52;;;;;;;19.95;15.05;;;16.20;99.90;;;;;;5090630;28;20504;-65
2021/07/26 03:49:18;;;;;;;19.83;15.15;;;16.20;99.90;;;;;;5088522;28;20032;-65
2021/07/26 03:51:43;;;;;;;16.95;13.40;;;16.30;99.90;;;;;;5083135;28;20436;-65
2021/07/26 03:54:09;;;;;;;15.50;13.95;;;16.30;99.90;;;;;;5076586;28;20067;-65
2021/07/26 03:56:35;;;;;;;15.07;13.07;;;16.30;99.90;;;;;;5090051;28;20556;-65
2021/07/26 03:59:01;;;;;;;15.07;13.48;;;16.30;99.90;;;;;;5071554;28;20075;-65
2021/07/26 04:01:26;;;;;;;18.85;13.35;;;16.30;99.90;;;;;;5088768;28;20048;-65
2021/07/26 04:03:52;;;;;;;13.65;12.20;;;16.20;99.90;;;;;;5089693;28;20111;-65
2021/07/26 04:06:19;;;;;;;19.75;13.63;;;16.30;99.90;;;;;;5071279;28;20040;-65
2021/07/26 04:08:48;;;;;;;15.00;13.68;;;16.30;99.90;;;;;;5081022;28;20036;-65
2021/07/26 04:11:20;;;;;;;15.93;14.32;;;16.40;99.90;;;;;;5086957;28;20062;-65
2021/07/26 04:13:51;;;;;;;16.05;14.65;;;16.40;99.90;;;;;;5069204;28;20036;-65
2021/07/26 04:16:17;;;;;;;16.20;14.65;;;16.40;99.90;;;;;;5090831;28;21150;-65
2021/07/26 04:18:46;;;;;;;15.73;14.13;;;16.50;99.90;;;;;;5093053;28;20036;-65
2021/07/26 04:21:12;;;;;;;16.60;14.93;;;16.50;99.90;;;;;;5076354;28;20086;-65
2021/07/26 04:23:37;;;;;;;15.18;13.32;;;16.50;99.90;;;;;;5078126;28;20383;-65
2021/07/26 04:26:05;;;;;;;16.77;14.75;;;16.60;99.90;;;;;;5078332;28;20052;-65
2021/07/26 04:28:36;;;;;;;15.45;14.05;;;16.60;99.90;;;;;;5086152;28;20036;-65
2021/07/26 04:31:05;;;;;;;16.42;14.82;;;16.70;99.90;;;;;;5068118;28;20111;-65
2021/07/26 04:33:42;;;;;;;16.70;15.23;;;16.70;99.90;;;;;;5083346;28;20505;-65
2021/07/26 04:36:08;;;;;;;16.48;13.65;;;16.70;99.90;;;;;;5081985;28;20079;-65
2021/07/26 04:38:34;;;;;;;16.92;15.43;;;16.80;99.90;;;;;;5074464;28;20486;-65
2021/07/26 04:41:01;;;;;;;15.80;14.40;;;16.80;99.90;;;;;;5081799;28;20046;-65
2021/07/26 04:43:27;;;;;;;16.90;15.30;;;16.90;99.90;;;;;;5077903;28;20131;-65
2021/07/26 04:45:55;;;;;;;18.55;15.43;;;16.90;99.90;;;;;;5090839;28;20070;-65
2021/07/26 04:48:21;;;;;;;19.23;16.90;;;17.00;99.90;;;;;;5092416;28;20089;-65
2021/07/26 04:50:47;;;;;;;16.85;15.13;;;17.10;99.90;;;;;;5092634;28;20066;-65
2021/07/26 04:53:12;;;;;;;18.70;16.48;;;17.10;99.90;;;;;;5092150;28;20039;-65
2021/07/26 04:55:38;;;;;;;18.80;17.02;;;17.20;99.90;;;;;;5080306;28;20034;-65
2021/07/26 04:58:03;;;;;;;17.15;15.55;;;17.30;99.90;;;;;;5081224;28;20451;-65
2021/07/26 05:00:30;;;;;;;17.83;16.15;;;17.40;99.90;;;;;;5082558;28;20041;-65
2021/07/26 05:02:56;;;;;;;18.55;16.85;;;17.50;99.90;;;;;;5087150;28;20042;-65
2021/07/26 05:05:22;;;;;;;20.42;18.52;;;17.60;99.90;;;;;;5065792;28;20119;-65
2021/07/26 05:07:47;;;;;;;19.15;17.55;;;17.80;99.90;;;;;;5087612;28;20431;-65
2021/07/26 05:10:13;;;;;;;20.90;18.90;;;17.90;99.90;;;;;;5082127;28;20089;-65
2021/07/26 05:12:39;;;;;;;20.42;18.63;;;18.10;99.90;;;;;;5087980;28;20059;-65
2021/07/26 05:15:05;;;;;;;19.88;17.98;;;18.20;99.90;;;;;;5091811;28;20024;-65
2021/07/26 05:17:31;;;;;;;20.02;18.33;;;18.30;99.90;;;;;;5073931;28;20067;-65
2021/07/26 05:19:57;;;;;;;18.95;17.10;;;18.40;99.90;;;;;;5072806;28;20092;-65
2021/07/26 05:22:23;;;;;;;20.08;18.25;;;18.40;99.90;;;;;;5075932;28;20032;-65
2021/07/26 05:24:50;;;;;;;18.45;16.85;;;18.50;99.90;;;;;;5071693;28;20060;-65
2021/07/26 05:27:16;;;;;;;18.08;16.52;;;18.40;99.90;;;;;;5081744;28;20036;-65
2021/07/26 05:29:42;;;;;;;18.67;17.00;;;18.40;99.90;;;;;;5072114;28;20093;-65
2021/07/26 05:32:08;;;;;;;18.40;16.52;;;18.40;99.90;;;;;;5089844;28;20123;-65
2021/07/26 05:34:35;;;;;;;17.10;15.63;;;18.40;99.90;;;;;;5084826;28;20075;-65
2021/07/26 05:37:01;;;;;;;18.08;16.58;;;18.50;99.90;;;;;;5092543;28;20127;-65
2021/07/26 05:39:27;;;;;;;16.30;14.90;;;18.50;99.90;;;;;;5091838;28;20119;-65
2021/07/26 05:42:02;;;;;;;16.30;14.90;;;18.60;99.90;;;;;;5092543;28;20040;-65
2021/07/26 05:44:28;;;;;;;16.77;15.27;;;18.70;99.90;;;;;;5090625;28;20119;-65
2021/07/26 05:46:54;;;;;;;17.17;15.48;;;18.80;99.90;;;;;;5077094;28;20067;-65
2021/07/26 05:49:19;;;;;;;15.65;14.25;;;18.80;99.90;;;;;;5074688;28;20046;-65
2021/07/26 05:51:46;;;;;;;16.33;15.02;;;18.90;99.90;;;;;;5092204;28;20071;-65
2021/07/26 05:54:11;;;;;;;16.40;15.10;;;19.00;99.90;;;;;;5092272;28;20493;-65
2021/07/26 05:56:45;;;;;;;17.80;16.20;;;19.20;99.90;;;;;;5091826;28;20040;-65
2021/07/26 05:59:11;;;;;;;17.88;16.38;;;19.30;99.90;;;;;;5091821;28;20044;-65
2021/07/26 06:01:49;;;;;;;17.08;15.48;;;19.70;99.90;;;;;;5087366;28;20058;-64
2021/07/26 06:04:15;;;;;;;15.80;14.35;;;20.40;99.90;;;;;;5093054;28;20036;-64
2021/07/26 06:06:46;;;;;;;15.45;14.13;;;21.30;99.90;;;;;;5086851;28;20139;-65
2021/07/26 06:09:12;;;;;;;14.25;13.00;;;22.20;99.90;;;;;;5089325;28;20039;-65
2021/07/26 06:11:39;;;;;;;15.27;13.80;;;23.20;99.90;;;;;;5091771;28;20036;-65
2021/07/26 06:14:05;;;;;;;14.32;13.13;;;24.30;99.90;;;;;;5070206;28;20135;-65
2021/07/26 06:16:31;;;;;;;13.85;12.57;;;25.20;99.90;;;;;;5081103;28;20572;-65
2021/07/26 06:18:59;;;;;;;14.45;13.10;;;25.80;99.90;;;;;;5091968;28;20114;-65
2021/07/26 06:21:25;;;;;;;13.00;11.60;;;26.60;99.90;;;;;;5091323;28;20036;-65
2021/07/26 06:23:50;;;;;;;13.20;12.10;;;27.10;99.90;;;;;;5091718;28;20054;-65
2021/07/26 06:26:16;;;;;;;12.43;11.32;;;28.00;99.90;;;;;;5087624;28;20044;-65
2021/07/26 06:28:41;;;;;;;12.02;10.93;;;28.50;99.10;;;;;;5091822;28;20404;-64
2021/07/26 06:31:07;;;;;;;10.07;9.27;;;29.10;98.30;;;;;;5082790;28;20036;-63
2021/07/26 06:33:33;;;;;;;10.50;9.60;;;29.40;96.40;;;;;;5080272;28;20462;-63
2021/07/26 06:36:03;;;;;;;10.32;9.43;;;29.40;96.20;;;;;;5075892;28;20607;-63
2021/07/26 06:38:29;;;;;;;8.90;8.20;;;29.80;95.30;;;;;;5080697;28;20409;-63
2021/07/26 06:40:55;;;;;;;10.13;9.13;;;30.00;95.00;;;;;;5079141;28;20036;-62
2021/07/26 06:43:21;;;;;;;9.48;8.73;;;29.80;93.00;;;;;;5090442;28;20688;-63
2021/07/26 06:45:47;;;;;;;9.18;8.25;;;29.00;92.90;;;;;;5064785;28;20045;-63
2021/07/26 06:48:13;;;;;;;9.82;8.02;;;29.50;94.50;;;;;;5052575;28;20041;-63
2021/07/26 06:50:39;;;;;;;9.60;8.80;;;29.60;93.80;;;;;;5086777;28;20119;-63
2021/07/26 06:53:07;;;;;;;8.75;8.02;;;30.10;92.70;;;;;;5091158;28;20370;-63
2021/07/26 06:55:36;;;;;;;9.07;8.38;;;30.60;92.70;;;;;;5090993;28;20032;-62
2021/07/26 06:58:01;;;;;;;8.80;7.90;;;30.80;91.90;;;;;;5090412;28;20078;-63
2021/07/26 07:00:27;;;;;;;8.00;7.25;;;30.90;89.50;;;;;;5091153;28;20067;-63
2021/07/26 07:02:52;;;;;;;7.45;6.60;;;30.70;89.80;;;;;;5084323;28;20047;-63
2021/07/26 07:05:18;;;;;;;7.68;6.88;;;31.50;90.70;;;;;;5090573;28;20036;-63
2021/07/26 07:07:44;;;;;;;6.60;6.03;;;32.00;88.50;;;;;;5090685;28;20104;-63
2021/07/26 07:10:10;;;;;;;6.85;6.18;;;31.90;86.00;;;;;;5082903;28;20028;-63
2021/07/26 07:12:35;;;;;;;7.20;6.60;;;32.20;88.10;;;;;;5091286;28;20044;-62
2021/07/26 07:15:02;;;;;;;6.82;6.13;;;32.30;84.10;;;;;;5082611;28;20381;-63
2021/07/26 07:17:27;;;;;;;6.38;5.82;;;32.10;85.20;;;;;;5089682;28;20044;-61
2021/07/26 07:19:53;;;;;;;6.70;6.10;;;32.50;84.70;;;;;;5090824;28;20036;-63
2021/07/26 07:22:20;;;;;;;6.90;6.30;;;32.90;82.30;;;;;;5082924;28;20067;-63
2021/07/26 07:24:46;;;;;;;6.97;6.30;;;33.10;82.20;;;;;;5083398;28;20048;-63
2021/07/26 07:27:12;;;;;;;7.13;6.57;;;33.20;80.90;;;;;;5089146;28;20024;-63
2021/07/26 07:29:38;;;;;;;6.68;6.18;;;32.70;79.60;;;;;;5091937;28;20032;-63
2021/07/26 07:32:04;;;;;;;6.80;5.97;;;32.00;79.30;;;;;;5083531;28;20398;-63
2021/07/26 07:34:30;;;;;;;7.20;6.60;;;31.60;84.30;;;;;;5088649;28;20036;-63
2021/07/26 07:36:58;;;;;;;7.35;6.75;;;31.40;83.90;;;;;;5074077;28;20554;-63
2021/07/26 07:39:25;;;;;;;6.57;5.97;;;31.30;83.70;;;;;;5089575;28;20119;-63
2021/07/26 07:41:51;;;;;;;6.47;5.85;;;31.20;83.20;;;;;;5083647;28;20124;-63
2021/07/26 07:44:17;;;;;;;7.05;5.53;;;30.60;83.50;;;;;;5079767;28;20467;-62
2021/07/26 07:46:43;;;;;;;6.57;5.97;;;29.90;87.10;;;;;;5072303;23;20103;-63
2021/07/26 07:49:08;;;;;;;6.63;6.03;;;30.10;89.10;;;;;;5062826;28;20044;-63
2021/07/26 07:51:34;;;;;;;5.90;5.40;;;29.80;88.20;;;;;;5074463;28;20066;-62
2021/07/26 07:54:00;;;;;;;6.20;5.65;;;29.50;87.40;;;;;;5071125;28;20045;-63
2021/07/26 07:56:26;;;;;;;6.53;6.03;;;29.50;89.60;;;;;;5062833;28;20040;-63
2021/07/26 07:58:54;;;;;;;5.68;5.18;;;29.60;89.70;;;;;;5070270;28;20059;-63
2021/07/26 08:01:29;;;;;;;5.82;5.22;;;29.40;89.60;;;;;;5073109;28;20040;-63
2021/07/26 08:03:54;;;;;;;5.97;4.88;;;29.20;90.30;;;;;;5072257;28;20102;-63
2021/07/26 08:06:20;;;;;;;4.88;4.47;;;29.10;91.00;;;;;;5079361;28;20119;-63
2021/07/26 08:08:46;;;;;;;6.13;5.18;;;29.10;91.50;;;;;;5077473;28;20090;-63
2021/07/26 08:11:13;;;;;;;6.07;5.45;;;28.90;90.80;;;;;;5070829;28;20127;-63
2021/07/26 08:13:39;;;;;;;7.10;4.68;;;28.80;90.40;;;;;;5071393;28;20581;-63
2021/07/26 08:16:05;;;;;;;5.40;4.90;;;28.30;91.40;;;;;;5073286;28;20037;-63
2021/07/26 08:18:32;;;;;;;5.70;4.85;;;28.20;92.50;;;;;;5073540;28;20405;-63
2021/07/26 08:20:58;;;;;;;5.53;4.95;;;28.20;93.60;;;;;;5072589;28;20082;-63
2021/07/26 08:23:24;;;;;;;5.38;4.60;;;27.80;93.20;;;;;;5072069;28;20115;-63
2021/07/26 08:25:49;;;;;;;5.45;4.95;;;27.70;94.00;;;;;;5073485;28;20119;-63
2021/07/26 08:28:15;;;;;;;5.63;4.80;;;27.70;94.10;;;;;;5065615;28;20064;-63
2021/07/26 08:30:41;;;;;;;5.90;4.60;;;27.60;94.70;;;;;;5087047;28;20071;-63
2021/07/26 08:33:07;;;;;;;5.40;4.57;;;27.50;95.00;;;;;;5072471;28;20059;-62
2021/07/26 08:35:34;;;;;;;4.75;3.90;;;27.30;95.20;;;;;;5072127;28;20044;-62
2021/07/26 08:38:00;;;;;;;4.82;4.38;;;27.20;94.80;;;;;;5054441;28;20110;-62
2021/07/26 08:40:28;;;;;;;5.93;5.22;;;27.20;95.50;;;;;;5072486;28;20544;-62
2021/07/26 08:42:55;;;;;;;6.93;4.22;;;26.90;95.90;;;;;;5055037;28;20047;-62
2021/07/26 08:45:21;;;;;;;4.88;3.92;;;26.80;96.40;;;;;;5063885;28;20120;-62
2021/07/26 08:47:47;;;;;;;4.55;4.15;;;26.70;96.50;;;;;;5072795;28;20116;-63
2021/07/26 08:50:16;;;;;;;4.82;4.43;;;26.70;96.50;;;;;;5072554;28;20462;-62
2021/07/26 08:52:47;;;;;;;4.57;3.78;;;26.60;96.30;;;;;;5068384;28;20048;-62
2021/07/26 08:55:18;;;;;;;6.10;4.35;;;26.30;97.60;;;;;;5072758;28;20033;-62
2021/07/26 08:57:46;;;;;;;4.97;4.45;;;26.10;97.80;;;;;;5067270;28;20132;-62
2021/07/26 09:00:14;;;;;;;5.13;4.00;;;26.00;98.20;;;;;;5066290;28;20056;-62
2021/07/26 09:02:40;;;;;;;4.30;3.83;;;26.00;97.90;;;;;;5075117;28;20552;-62
2021/07/26 09:05:07;;;;;;;4.95;4.22;;;25.80;98.50;;;;;;5063259;28;20100;-63
2021/07/26 09:07:37;;;;;;;4.38;3.97;;;25.80;98.80;;;;;;5064068;28;20673;-63
2021/07/26 09:10:20;;;;;;;4.45;3.50;;;25.90;99.00;;;;;;5073109;28;20071;-62
2021/07/26 09:12:48;;;;;;;4.97;3.90;;;26.20;98.60;;;;;;5067270;28;20098;-70
2021/07/26 09:15:28;;;;;;;5.30;3.90;;;26.30;98.90;;;;;;5070217;28;20050;-63
2021/07/26 09:17:55;;;;;;;5.43;3.80;;;26.40;97.40;;;;;;5074226;28;20040;-62
2021/07/26 09:20:22;;;;;;;4.93;3.97;;;26.50;97.50;;;;;;5080078;28;20036;-62
2021/07/26 09:22:49;;;;;;;4.88;3.22;;;26.70;97.40;;;;;;5068754;28;20436;-62
2021/07/26 09:25:22;;;;;;;4.60;3.20;;;27.00;97.60;;;;;;5072062;28;20043;-62
2021/07/26 09:28:10;;;;;;;4.30;3.50;;;26.90;97.10;;;;;;5068178;28;20123;-62
2021/07/26 09:30:47;;;;;;;5.60;3.13;;;26.90;96.80;;;;;;5071253;28;20373;-62
2021/07/26 09:33:28;;;;;;;5.05;3.45;;;27.00;97.00;;;;;;5070658;28;20342;-62
2021/07/26 09:36:07;;;;;;;5.20;3.55;;;27.20;96.20;;;;;;5065399;28;20052;-63
2021/07/26 09:38:34;;;;;;;5.85;3.30;;;27.00;96.40;;;;;;5072183;28;20048;-63
2021/07/26 09:41:05;;;;;;;3.40;3.10;;;27.10;96.70;;;;;;5071618;28;20086;-63
2021/07/26 09:43:31;;;;;;;3.65;3.22;;;27.30;97.10;;;;;;5062267;28;20041;-63
2021/07/26 09:45:57;;;;;;;3.45;3.15;;;27.40;96.20;;;;;;5062350;28;20041;-63
2021/07/26 09:48:26;;;;;;;4.72;3.10;;;27.60;96.60;;;;;;5065701;28;20053;-62
2021/07/26 09:50:53;;;;;;;2.92;2.60;;;27.60;96.20;;;;;;5059673;28;20438;-63
2021/07/26 09:53:24;;;;;;;3.25;2.60;;;27.70;95.60;;;;;;5056820;28;20043;-62
2021/07/26 09:55:57;;;;;;;2.72;2.53;;;27.80;95.50;;;;;;5064127;28;20079;-62
2021/07/26 09:58:38;;;;;;;3.38;2.50;;;27.70;94.80;;;;;;5069669;28;20413;-63
2021/07/26 10:01:05;;;;;;;3.38;2.63;;;27.70;93.80;;;;;;5059402;28;20037;-62
2021/07/26 10:03:31;;;;;;;2.83;2.63;;;27.50;94.00;;;;;;5067228;28;20086;-62
2021/07/26 10:05:58;;;;;;;3.53;3.22;;;27.40;94.80;;;;;;5069664;28;20040;-62
2021/07/26 10:08:24;;;;;;;3.35;2.65;;;27.40;95.10;;;;;;5054352;28;20048;-63
2021/07/26 10:10:50;;;;;;;3.75;2.85;;;27.30;94.60;;;;;;5066740;28;20062;-62
2021/07/26 10:13:18;;;;;;;3.25;2.20;;;27.50;94.60;;;;;;5070899;28;20530;-63
2021/07/26 10:15:44;;;;;;;4.50;2.58;;;27.50;93.00;;;;;;5056289;28;20043;-62
2021/07/26 10:18:10;;;;;;;3.50;2.22;;;27.40;93.50;;;;;;5058515;28;20040;-62
2021/07/26 10:20:39;;;;;;;3.15;2.85;;;27.50;93.80;;;;;;5047726;28;20047;-62
2021/07/26 10:23:19;;;;;;;3.30;3.00;;;27.70;94.30;;;;;;5059088;28;20029;-63
2021/07/26 10:25:54;;;;;;;3.03;2.75;;;27.70;91.90;;;;;;5069623;28;20517;-62
2021/07/26 10:28:27;;;;;;;3.13;2.30;;;27.60;92.40;;;;;;5074711;28;20032;-63
2021/07/26 10:30:53;;;;;;;2.75;2.55;;;27.60;92.20;;;;;;5069941;28;20087;-62
2021/07/26 10:33:19;;;;;;;3.25;2.95;;;27.50;92.50;;;;;;5069417;28;20028;-62
2021/07/26 10:36:03;;;;;;;3.83;2.83;;;27.60;92.80;;;;;;5058583;28;20446;-62
2021/07/26 10:38:43;;;;;;;3.53;2.58;;;27.50;93.00;;;;;;5052650;28;20130;-62
2021/07/26 10:41:10;;;;;;;;;;;27.50;93.10;;;;;;5070634;28;20524;-63
2021/07/26 10:43:58;;;;;;;3.03;2.72;;;27.50;93.30;;;;;;5071115;28;19920;-62
2021/07/26 10:46:24;;;;;;;3.42;2.53;;;27.70;93.60;;;;;;5070543;28;20221;-63
2021/07/26 10:48:50;;;;;;;4.25;2.10;;;27.50;92.40;;;;;;5070032;28;20508;-63
2021/07/26 10:51:37;;;;;;;2.65;2.05;;;27.60;92.90;;;;;;5071076;28;20064;-62
2021/07/26 10:54:04;;;;;;;2.95;2.38;;;27.70;92.50;;;;;;5070328;28;20033;-62
2021/07/26 10:57:02;;;;;;;3.30;2.63;;;27.70;93.00;;;;;;5046949;28;20053;-63
2021/07/26 10:59:29;;;;;;;3.20;2.78;;;27.80;93.40;;;;;;5070157;28;20093;-62
2021/07/26 11:02:02;;;;;;;2.92;2.50;;;27.80;92.90;;;;;;5070251;28;20066;-62
2021/07/26 11:04:39;;;;;;;4.93;2.97;;;27.90;93.10;;;;;;5061266;28;20135;-63
2021/07/26 11:07:07;;;;;;;3.38;2.63;;;28.00;93.50;;;;;;5070850;28;20509;-63
2021/07/26 11:09:43;;;;;;;3.95;2.75;;;27.90;92.60;;;;;;5070352;28;20140;-63
2021/07/26 11:12:08;;;;;;;3.22;2.90;;;27.80;93.10;;;;;;5067325;28;20041;-63
2021/07/26 11:14:34;;;;;;;2.65;2.45;;;27.70;92.40;;;;;;5070289;28;20048;-62
2021/07/26 11:17:04;;;;;;;3.13;2.60;;;27.60;92.20;;;;;;5071113;28;20090;-63
2021/07/26 11:19:58;;;;;;;2.50;2.05;;;27.70;92.90;;;;;;5070480;28;20107;-63
2021/07/26 11:22:26;;;;;;;3.45;2.03;;;27.60;93.10;;;;;;5071286;28;20040;-63
2021/07/26 11:24:54;;;;;;;2.63;2.17;;;27.70;92.60;;;;;;5055336;28;20037;-62
2021/07/26 11:27:23;;;;;;;2.33;2.10;;;27.70;92.30;;;;;;5056660;28;20043;-62
2021/07/26 11:29:49;;;;;;;4.07;2.72;;;27.60;92.80;;;;;;5074004;28;20390;-63
2021/07/26 11:32:28;;;;;;;4.80;2.42;;;27.60;93.10;;;;;;5074779;28;20101;-63
2021/07/26 11:35:01;;;;;;;3.80;2.13;;;27.70;93.40;;;;;;5072672;28;20051;-62
2021/07/26 11:37:34;;;;;;;1.90;1.80;;;27.80;92.10;;;;;;5075979;28;20040;-62
2021/07/26 11:40:04;;;;;;;3.33;2.47;;;27.80;92.80;;;;;;5073763;28;20098;-63
2021/07/26 11:42:32;;;;;;;1.97;1.87;;;27.90;92.80;;;;;;5069082;28;20044;-62
2021/07/26 11:45:02;;;;;;;1.98;1.85;;;28.00;92.70;;;;;;5077069;28;20036;-63
2021/07/26 11:47:33;;;;;;;2.47;2.28;;;28.20;91.70;;;;;;5036199;28;20484;-62
2021/07/26 11:50:04;;;;;;;3.83;2.08;;;28.30;92.30;;;;;;5068416;28;20033;-63
2021/07/26 11:52:30;;;;;;;3.13;2.25;;;28.40;91.00;;;;;;5053841;28;20059;-62
2021/07/26 11:54:55;;;;;;;2.90;2.60;;;28.40;92.00;;;;;;5055485;28;20569;-62
2021/07/26 11:57:21;;;;;;;3.05;2.53;;;28.30;91.80;;;;;;5053821;28;20040;-62
2021/07/26 11:59:54;;;;;;;2.88;2.17;;;28.40;91.30;;;;;;5049197;28;20049;-63
2021/07/26 12:02:23;;;;;;;3.63;2.05;;;28.30;90.60;;;;;;5036176;28;20132;-63
2021/07/26 12:04:49;;;;;;;3.03;1.90;;;28.30;91.30;;;;;;5051310;28;20577;-63
2021/07/26 12:07:15;;;;;;;2.10;1.90;;;28.20;90.80;;;;;;5039226;28;20120;-62
2021/07/26 12:09:50;;;;;;;2.30;2.10;;;28.20;91.40;;;;;;5053700;28;20043;-62
2021/07/26 12:12:16;;;;;;;3.17;2.30;;;28.30;90.60;;;;;;5053638;28;20487;-62
2021/07/26 12:14:43;;;;;;;2.22;1.88;;;28.30;90.50;;;;;;5059814;28;20044;-62
2021/07/26 12:17:11;;;;;;;2.00;1.80;;;28.40;91.00;;;;;;5058932;28;20569;-63
2021/07/26 12:19:42;;;;;;;1.63;1.50;;;28.40;89.60;;;;;;5054278;28;20037;-62
2021/07/26 12:22:22;;;;;;;2.08;1.52;;;28.40;88.30;;;;;;5063217;28;20115;-62
2021/07/26 12:24:58;;;;;;;3.13;1.50;;;28.50;91.10;;;;;;5037463;28;20432;-63
2021/07/26 12:27:29;;;;;;;2.33;1.75;;;28.60;87.90;;;;;;5053072;28;20045;-63
2021/07/26 12:29:56;;;;;;;2.60;1.90;;;28.40;88.00;;;;;;5052480;28;20041;-62
2021/07/26 12:32:22;;;;;;;2.38;1.88;;;28.50;87.60;;;;;;5048896;28;20516;-62
2021/07/26 12:35:19;;;;;;;2.00;1.88;;;28.50;88.40;;;;;;5053089;28;20047;-62
2021/07/26 12:38:05;;;;;;;2.03;1.83;;;28.50;86.90;;;;;;5048997;28;20409;-62
2021/07/26 12:40:32;;;;;;;2.10;1.70;;;28.60;89.00;;;;;;5055340;28;20072;-63
2021/07/26 12:43:07;;;;;;;2.25;1.67;;;28.50;89.30;;;;;;5053068;28;20049;-63